Newquay, United Kingdom
Current Conditions -  °F | °C
As of 12:20 PM on Thursday 30 Oct 2014 (Local Time) from EGHQ Reporting Station
Moderate Fog Moderate Fog  
Wind Chill: 57°   Ceiling: 200
Heat Index: 57°   Visibility: 0.5mi
Dew Point: 55°   Wind: 15mph
Humidity: 94%   Direction: 160°SSE
Pressure: 30"   Gusts: NA
Location:  50.41°N, 5.08°W
Report Text: EGHQ 301220Z 16013KT 0800 R12/P1500 FG SCT000 BKN002 14/13 Q1016
Loading
Personal Weather Stations






























Interactive Weather Map
Tropical Storm Tracking
New forecast layout! Learn more

10-Day Weather Forecast

Advertisements
Track Severe Weather on mobile